createdAt,value
2024-04-23T00:01:15.152Z,2.35
2024-04-23T00:03:41.765Z,2.30
2024-04-23T00:06:08.416Z,2.90
2024-04-23T00:08:34.907Z,2.15
2024-04-23T00:11:01.480Z,2.35
2024-04-23T00:13:28.106Z,2.08
2024-04-23T00:15:54.597Z,2.42
2024-04-23T00:18:21.137Z,2.67
2024-04-23T00:20:47.655Z,2.33
2024-04-23T00:23:14.196Z,2.47
2024-04-23T00:25:40.676Z,2.20
2024-04-23T00:28:07.390Z,3.13
2024-04-23T00:30:33.936Z,2.58
2024-04-23T00:33:00.728Z,2.53
2024-04-23T00:35:27.416Z,2.53
2024-04-23T00:37:53.953Z,2.53
2024-04-23T00:40:20.803Z,2.38
2024-04-23T00:42:47.321Z,2.67
2024-04-23T00:45:15.091Z,2.90
2024-04-23T00:47:41.662Z,2.33
2024-04-23T00:50:08.627Z,3.20
2024-04-23T00:52:35.317Z,2.70
2024-04-23T00:55:02.018Z,2.75
2024-04-23T00:57:28.643Z,2.53
2024-04-23T00:59:55.217Z,2.80
2024-04-23T01:02:21.878Z,3.22
2024-04-23T01:04:48.518Z,2.80
2024-04-23T01:07:15.089Z,3.00
2024-04-23T01:09:41.729Z,3.28
2024-04-23T01:12:08.300Z,3.13
2024-04-23T01:14:36.736Z,2.88
2024-04-23T01:17:03.611Z,3.08
2024-04-23T01:19:37.869Z,3.65
2024-04-23T01:22:07.980Z,3.35
2024-04-23T01:24:37.028Z,3.28
2024-04-23T01:27:03.711Z,2.80
2024-04-23T01:29:31.540Z,3.38
2024-04-23T01:31:59.647Z,3.03
2024-04-23T01:34:28.535Z,2.65
2024-04-23T01:36:55.082Z,3.38
2024-04-23T01:39:21.772Z,2.72
2024-04-23T01:41:48.640Z,2.65
2024-04-23T01:44:15.151Z,2.72
2024-04-23T01:46:41.775Z,2.67
2024-04-23T01:49:08.472Z,2.50
2024-04-23T01:51:35.188Z,2.75
2024-04-23T01:54:01.703Z,2.47
2024-04-23T01:56:28.328Z,2.72
2024-04-23T01:58:55.054Z,2.45
2024-04-23T02:01:22.293Z,2.45
2024-04-23T02:03:49.108Z,2.33
2024-04-23T02:06:16.042Z,2.30
2024-04-23T02:08:42.650Z,2.63
2024-04-23T02:11:09.237Z,3.22
2024-04-23T02:13:35.954Z,2.47
2024-04-23T02:16:02.527Z,3.13
2024-04-23T02:18:29.238Z,2.75
2024-04-23T02:20:55.872Z,2.72
2024-04-23T02:23:22.411Z,3.30
2024-04-23T02:25:49.069Z,3.15
2024-04-23T02:28:15.613Z,3.25
2024-04-23T02:30:42.164Z,3.78
2024-04-23T02:33:12.922Z,4.03
2024-04-23T02:35:39.964Z,3.88
2024-04-23T02:38:06.539Z,3.53
2024-04-23T02:40:33.198Z,3.30
2024-04-23T02:42:59.709Z,3.33
2024-04-23T02:45:29.197Z,3.67
2024-04-23T02:47:57.700Z,3.15
2024-04-23T02:50:24.352Z,3.92
2024-04-23T02:52:50.945Z,3.58
2024-04-23T02:55:17.575Z,3.80
2024-04-23T02:57:44.130Z,3.58
2024-04-23T03:00:10.967Z,3.72
2024-04-23T03:02:37.574Z,3.65
2024-04-23T03:05:04.835Z,4.03
2024-04-23T03:07:31.387Z,4.10
2024-04-23T03:09:57.929Z,4.03
2024-04-23T03:12:24.440Z,3.40
2024-04-23T03:14:50.956Z,3.38
2024-04-23T03:17:17.523Z,3.72
2024-04-23T03:19:44.124Z,3.35
2024-04-23T03:22:10.649Z,3.75
2024-04-23T03:24:37.218Z,3.70
2024-04-23T03:27:03.841Z,3.53
2024-04-23T03:29:30.477Z,3.60
2024-04-23T03:32:01.600Z,4.00
2024-04-23T03:34:28.345Z,3.28
2024-04-23T03:36:54.845Z,3.42
2024-04-23T03:39:21.378Z,3.20
2024-04-23T03:41:57.582Z,3.50
2024-04-23T03:44:27.651Z,3.38
2024-04-23T03:46:54.387Z,3.38
2024-04-23T03:49:20.949Z,3.53
2024-04-23T03:51:47.472Z,3.60
2024-04-23T03:54:14.095Z,3.10
2024-04-23T03:56:40.720Z,3.58
2024-04-23T03:59:07.257Z,3.58
2024-04-23T04:01:33.884Z,3.67
2024-04-23T04:04:19.462Z,3.65
2024-04-23T04:06:45.978Z,3.92
2024-04-23T04:09:12.512Z,3.85
2024-04-23T04:11:39.463Z,3.70
2024-04-23T04:14:06.135Z,3.53
2024-04-23T04:16:35.524Z,4.13
2024-04-23T04:19:03.274Z,4.00
2024-04-23T04:21:29.870Z,4.18
2024-04-23T04:23:56.412Z,4.25
2024-04-23T04:26:23.040Z,4.32
2024-04-23T04:28:49.626Z,5.03
2024-04-23T04:31:16.210Z,4.60
2024-04-23T04:33:42.796Z,4.47
2024-04-23T04:36:09.377Z,4.57
2024-04-23T04:38:35.901Z,4.47
2024-04-23T04:41:02.605Z,4.70
2024-04-23T04:43:29.299Z,4.20
2024-04-23T04:45:55.906Z,4.18
2024-04-23T04:48:22.866Z,4.47
2024-04-23T04:50:49.417Z,4.40
2024-04-23T04:53:15.939Z,3.80
2024-04-23T04:55:42.599Z,4.90
2024-04-23T04:58:09.159Z,4.28
2024-04-23T05:00:35.826Z,4.88
2024-04-23T05:03:02.400Z,4.43
2024-04-23T05:05:28.913Z,4.70
2024-04-23T05:07:55.463Z,4.88
2024-04-23T05:10:21.994Z,4.50
2024-04-23T05:12:48.525Z,4.55
2024-04-23T05:15:15.940Z,4.97
2024-04-23T05:17:42.566Z,4.97
2024-04-23T05:20:11.460Z,3.90
2024-04-23T05:22:38.107Z,3.42
2024-04-23T05:25:05.423Z,3.65
2024-04-23T05:27:32.001Z,3.92
2024-04-23T05:29:59.044Z,4.00
2024-04-23T05:32:45.187Z,4.22
2024-04-23T05:35:14.033Z,3.78
2024-04-23T05:37:41.038Z,4.60
2024-04-23T05:40:10.785Z,5.13
2024-04-23T05:42:37.401Z,4.93
2024-04-23T05:45:04.026Z,5.22
2024-04-23T05:47:30.875Z,6.35
2024-04-23T05:50:18.728Z,6.15
2024-04-23T05:53:24.680Z,7.00
2024-04-23T05:56:09.865Z,6.88
2024-04-23T05:58:36.565Z,6.80
2024-04-23T06:01:03.170Z,6.05
2024-04-23T06:03:29.832Z,7.20
2024-04-23T06:05:56.365Z,7.85
2024-04-23T06:08:26.854Z,7.35
2024-04-23T06:10:53.484Z,7.47
2024-04-23T06:13:20.134Z,7.53
2024-04-23T06:15:46.728Z,7.75
2024-04-23T06:18:13.365Z,8.23
2024-04-23T06:20:40.033Z,8.38
2024-04-23T06:23:06.693Z,8.18
2024-04-23T06:25:33.385Z,8.07
2024-04-23T06:28:00.024Z,8.00
2024-04-23T06:30:26.708Z,8.52
2024-04-23T06:32:53.491Z,8.45
2024-04-23T06:35:20.414Z,8.70
2024-04-23T06:37:47.117Z,7.78
2024-04-23T06:40:13.702Z,8.15
2024-04-23T06:42:40.270Z,7.35
2024-04-23T06:45:07.107Z,8.18
2024-04-23T06:47:36.485Z,8.27
2024-04-23T06:50:03.621Z,7.90
2024-04-23T06:52:30.479Z,8.15
2024-04-23T06:54:57.929Z,8.05
2024-04-23T06:57:24.614Z,7.15
2024-04-23T06:59:51.159Z,7.57
2024-04-23T07:02:17.866Z,7.80
2024-04-23T07:04:44.489Z,8.10
2024-04-23T07:07:11.008Z,8.45
2024-04-23T07:09:37.531Z,8.25
2024-04-23T07:12:04.216Z,7.90
2024-04-23T07:14:30.735Z,8.02
2024-04-23T07:16:57.408Z,7.93
2024-04-23T07:19:23.962Z,7.97
2024-04-23T07:21:50.577Z,7.65
2024-04-23T07:24:17.133Z,6.90
2024-04-23T07:26:43.725Z,7.30
2024-04-23T07:29:10.502Z,6.68
2024-04-23T07:31:37.308Z,7.25
2024-04-23T07:34:03.927Z,7.22
2024-04-23T07:36:30.500Z,6.28
2024-04-23T07:38:57.331Z,6.88
2024-04-23T07:41:23.999Z,5.43
2024-04-23T07:43:50.686Z,6.70
2024-04-23T07:46:17.367Z,7.18
2024-04-23T07:48:44.014Z,5.45
2024-04-23T07:51:10.640Z,5.25
2024-04-23T07:53:37.299Z,5.47
2024-04-23T07:56:04.544Z,5.57
2024-04-23T07:58:31.259Z,5.72
2024-04-23T08:00:57.906Z,6.18
2024-04-23T08:03:25.572Z,5.13
2024-04-23T08:05:56.051Z,6.10
2024-04-23T08:08:22.717Z,4.72
2024-04-23T08:10:49.443Z,5.25
2024-04-23T08:13:16.028Z,5.85
2024-04-23T08:15:42.565Z,4.80
2024-04-23T08:18:09.326Z,6.25
2024-04-23T08:20:37.201Z,5.03
2024-04-23T08:23:04.771Z,4.47
2024-04-23T08:25:31.460Z,4.82
2024-04-23T08:27:58.026Z,4.32
2024-04-23T08:30:24.585Z,4.00
2024-04-23T08:32:51.243Z,4.30
2024-04-23T08:35:17.815Z,4.10
2024-04-23T08:37:47.210Z,3.90
2024-04-23T08:40:13.827Z,3.75
2024-04-23T08:42:44.453Z,4.07
2024-04-23T08:45:11.729Z,4.22
2024-04-23T08:47:38.678Z,3.53
2024-04-23T08:50:05.800Z,3.67
2024-04-23T08:52:32.408Z,4.30
2024-04-23T08:55:00.235Z,3.35
2024-04-23T08:57:27.464Z,3.25
2024-04-23T08:59:54.237Z,3.72
2024-04-23T09:02:30.049Z,4.18
2024-04-23T09:04:57.592Z,3.90
2024-04-23T09:07:27.859Z,3.10
2024-04-23T09:09:59.378Z,3.47
2024-04-23T09:12:26.388Z,3.28
2024-04-23T09:14:56.372Z,3.20
2024-04-23T09:17:24.405Z,2.80
2024-04-23T09:19:52.187Z,3.00
2024-04-23T09:22:18.691Z,3.33
2024-04-23T09:24:45.445Z,2.72
2024-04-23T09:27:12.036Z,2.45
2024-04-23T09:29:38.662Z,3.22
2024-04-23T09:32:06.044Z,2.63
2024-04-23T09:34:36.767Z,2.85
2024-04-23T09:37:18.026Z,2.78
2024-04-23T09:39:46.900Z,2.35
2024-04-23T09:42:24.104Z,2.90
2024-04-23T09:44:52.202Z,2.50
2024-04-23T09:47:19.510Z,2.90
2024-04-23T09:49:47.183Z,2.65
2024-04-23T09:52:13.810Z,2.95
2024-04-23T09:54:41.566Z,3.03
2024-04-23T09:57:08.095Z,2.75
2024-04-23T09:59:34.616Z,2.60
2024-04-23T10:02:02.783Z,2.30
2024-04-23T10:04:31.063Z,3.05
2024-04-23T10:06:58.150Z,3.10
2024-04-23T10:09:28.592Z,2.50
2024-04-23T10:12:06.490Z,3.47
2024-04-23T10:14:40.172Z,2.45
2024-04-23T10:17:18.746Z,2.92
2024-04-23T10:19:46.359Z,2.95
2024-04-23T10:22:13.791Z,3.20
2024-04-23T10:24:40.997Z,2.92
2024-04-23T10:27:08.408Z,2.67
2024-04-23T10:29:36.157Z,2.67
2024-04-23T10:32:03.673Z,2.42
2024-04-23T10:34:30.950Z,2.28
2024-04-23T10:36:57.742Z,3.00
2024-04-23T10:39:24.407Z,3.65
2024-04-23T10:41:52.621Z,2.70
2024-04-23T10:44:20.425Z,2.25
2024-04-23T10:46:47.081Z,3.28
2024-04-23T10:49:17.385Z,2.78
2024-04-23T10:51:47.336Z,2.22
2024-04-23T10:54:20.448Z,2.88
2024-04-23T10:56:56.787Z,2.92
2024-04-23T10:59:28.201Z,3.05
2024-04-23T11:02:00.098Z,2.47
2024-04-23T11:04:34.134Z,2.00
2024-04-23T11:07:04.967Z,2.08
2024-04-23T11:09:38.177Z,2.30
2024-04-23T11:12:17.979Z,2.30
2024-04-23T11:14:44.858Z,2.38
2024-04-23T11:17:11.706Z,2.20
2024-04-23T11:19:42.604Z,2.30
2024-04-23T11:22:10.962Z,2.37
2024-04-23T11:24:44.482Z,1.80
2024-04-23T11:27:12.319Z,2.10
2024-04-23T11:29:42.537Z,2.75
2024-04-23T11:32:09.476Z,2.55
2024-04-23T11:34:36.672Z,3.10
2024-04-23T11:37:03.257Z,3.20
2024-04-23T11:39:29.820Z,2.60
2024-04-23T11:41:56.496Z,3.00
2024-04-23T11:44:23.108Z,2.65
2024-04-23T11:46:55.815Z,2.63
2024-04-23T11:49:22.605Z,3.35
2024-04-23T11:51:50.717Z,3.00
2024-04-23T11:54:17.970Z,3.42
2024-04-23T11:56:45.035Z,3.28
2024-04-23T11:59:14.464Z,4.22
2024-04-23T12:01:41.579Z,2.85
2024-04-23T12:04:10.550Z,2.78
2024-04-23T12:06:39.012Z,3.00
2024-04-23T12:09:06.768Z,3.17
2024-04-23T12:11:34.360Z,2.65
2024-04-23T12:14:01.159Z,2.85
2024-04-23T12:16:27.699Z,2.85
2024-04-23T12:18:54.798Z,2.78
2024-04-23T12:21:24.108Z,2.75
2024-04-23T12:23:54.361Z,3.15
2024-04-23T12:26:22.781Z,3.08
2024-04-23T12:28:49.333Z,2.72
2024-04-23T12:31:15.879Z,2.35
2024-04-23T12:33:42.464Z,3.38
2024-04-23T12:36:10.342Z,2.55
2024-04-23T12:38:46.568Z,2.25
2024-04-23T12:41:15.056Z,2.88
2024-04-23T12:43:43.818Z,2.13
2024-04-23T12:46:14.044Z,2.58
2024-04-23T12:48:41.405Z,1.95
2024-04-23T12:51:08.484Z,2.25
2024-04-23T12:53:35.164Z,2.70
2024-04-23T12:56:02.022Z,2.00
2024-04-23T12:58:30.003Z,2.50
2024-04-23T13:00:56.640Z,2.42
2024-04-23T13:03:25.506Z,2.90
2024-04-23T13:05:52.627Z,2.33
2024-04-23T13:08:19.336Z,2.72
2024-04-23T13:10:46.634Z,2.22
2024-04-23T13:13:13.236Z,2.25
2024-04-23T13:15:42.884Z,2.58
2024-04-23T13:18:10.502Z,2.28
2024-04-23T13:20:37.543Z,2.40
2024-04-23T13:23:04.489Z,2.22
2024-04-23T13:25:37.208Z,2.40
2024-04-23T13:28:04.538Z,2.92
2024-04-23T13:30:31.348Z,2.20
2024-04-23T13:32:58.025Z,2.65
2024-04-23T13:35:24.616Z,2.92
2024-04-23T13:37:51.431Z,2.30
2024-04-23T13:41:50.047Z,2.65
2024-04-23T13:44:16.604Z,2.17
2024-04-23T13:46:43.316Z,2.85
2024-04-23T13:49:09.877Z,4.60
2024-04-23T13:51:36.399Z,2.67
2024-04-23T13:54:03.076Z,1.95
2024-04-23T13:56:29.670Z,2.35
2024-04-23T13:58:56.251Z,2.20
2024-04-23T14:01:22.924Z,2.70
2024-04-23T14:03:49.518Z,3.03
2024-04-23T14:06:16.430Z,2.42
2024-04-23T14:08:43.265Z,2.97
2024-04-23T14:11:10.114Z,2.88
2024-04-23T14:13:37.411Z,2.53
2024-04-23T14:16:08.142Z,2.28
2024-04-23T14:18:34.818Z,2.40
2024-04-23T14:21:01.321Z,2.40
2024-04-23T14:23:34.742Z,2.38
2024-04-23T14:26:01.751Z,2.80
2024-04-23T14:28:31.144Z,1.80
2024-04-23T14:31:04.595Z,1.70
2024-04-23T14:33:31.908Z,2.00
2024-04-23T14:36:02.903Z,1.95
2024-04-23T14:38:31.775Z,1.77
2024-04-23T14:40:59.016Z,1.15
2024-04-23T14:43:25.582Z,1.42
2024-04-23T14:45:52.096Z,1.35
2024-04-23T14:48:18.700Z,1.50
2024-04-23T14:50:45.252Z,1.13
2024-04-23T14:53:11.969Z,1.38
2024-04-23T14:55:38.590Z,1.10
2024-04-23T14:58:05.142Z,1.15
2024-04-23T15:00:31.893Z,1.30
2024-04-23T15:02:58.608Z,0.95
2024-04-23T15:05:25.447Z,1.10
2024-04-23T15:07:52.173Z,0.73
2024-04-23T15:10:18.718Z,1.00
2024-04-23T15:12:45.365Z,0.90
2024-04-23T15:15:12.029Z,0.65
2024-04-23T15:17:38.794Z,1.20
2024-04-23T15:20:05.668Z,1.20
2024-04-23T15:22:32.259Z,1.20
2024-04-23T15:24:58.878Z,1.42
2024-04-23T15:27:25.440Z,1.50
2024-04-23T15:29:52.006Z,1.70
2024-04-23T15:32:18.619Z,1.50
2024-04-23T15:34:45.360Z,1.83
2024-04-23T15:37:11.899Z,2.50
2024-04-23T15:39:38.474Z,1.23
2024-04-23T15:42:08.444Z,1.90
2024-04-23T15:44:34.966Z,1.83
2024-04-23T15:47:01.592Z,1.27
2024-04-23T15:49:28.301Z,1.20
2024-04-23T15:51:54.881Z,1.45
2024-04-23T15:54:22.852Z,2.05
2024-04-23T15:56:52.304Z,2.05
2024-04-23T15:59:20.265Z,2.25
2024-04-23T16:01:46.864Z,2.40
2024-04-23T16:04:13.458Z,2.60
2024-04-23T16:06:40.083Z,2.15
2024-04-23T16:09:06.690Z,2.53
2024-04-23T16:11:33.689Z,1.70
2024-04-23T16:14:02.105Z,1.80
2024-04-23T16:16:28.717Z,2.13
2024-04-23T16:18:55.349Z,2.38
2024-04-23T16:21:22.002Z,2.35
2024-04-23T16:23:48.635Z,2.13
2024-04-23T16:26:15.577Z,1.80
2024-04-23T16:28:42.286Z,1.60
2024-04-23T16:31:09.420Z,1.38
2024-04-23T16:33:39.700Z,2.05
2024-04-23T16:36:07.453Z,1.50
2024-04-23T16:38:37.557Z,2.33
2024-04-23T16:41:04.590Z,1.70
2024-04-23T16:43:32.168Z,2.15
2024-04-23T16:46:09.414Z,2.30
2024-04-23T16:48:36.587Z,1.80
2024-04-23T16:51:03.657Z,2.10
2024-04-23T16:53:30.406Z,2.33
2024-04-23T16:55:57.336Z,2.13
2024-04-23T16:58:23.936Z,2.67
2024-04-23T17:00:50.491Z,1.80
2024-04-23T17:03:17.139Z,5.20
2024-04-23T17:05:43.784Z,2.17
2024-04-23T17:08:10.406Z,2.42
2024-04-23T17:10:36.958Z,1.85
2024-04-23T17:13:03.568Z,1.80
2024-04-23T17:15:30.284Z,2.05
2024-04-23T17:17:57.825Z,2.35
2024-04-23T17:20:24.449Z,1.88
2024-04-23T17:22:51.347Z,2.40
2024-04-23T17:25:18.246Z,2.30
2024-04-23T17:27:44.771Z,2.30
2024-04-23T17:30:11.464Z,2.95
2024-04-23T17:32:38.150Z,2.65
2024-04-23T17:35:05.194Z,3.25
2024-04-23T17:37:32.269Z,3.28
2024-04-23T17:39:58.793Z,3.25
2024-04-23T17:42:26.357Z,2.80
2024-04-23T17:44:54.074Z,3.88
2024-04-23T17:47:20.747Z,4.03
2024-04-23T17:49:49.308Z,4.25
2024-04-23T17:52:16.781Z,6.65
2024-04-23T17:54:43.350Z,5.78
2024-04-23T17:57:10.214Z,4.93
2024-04-23T17:59:36.940Z,4.57
2024-04-23T18:02:03.546Z,4.85
2024-04-23T18:04:30.169Z,5.00
2024-04-23T18:06:58.201Z,4.43
2024-04-23T18:09:24.972Z,3.95
2024-04-23T18:11:51.604Z,4.05
2024-04-23T18:14:18.139Z,3.58
2024-04-23T18:16:44.723Z,12.18
2024-04-23T18:19:11.402Z,4.93
2024-04-23T18:21:37.927Z,4.40
2024-04-23T18:24:04.676Z,4.40
2024-04-23T18:26:31.270Z,5.72
2024-04-23T18:28:57.985Z,4.15
2024-04-23T18:31:24.532Z,4.82
2024-04-23T18:33:52.452Z,4.80
2024-04-23T18:36:19.083Z,3.95
2024-04-23T18:38:45.604Z,4.93
2024-04-23T18:41:13.916Z,4.38
2024-04-23T18:43:40.728Z,2.15
2024-04-23T18:46:10.421Z,2.33
2024-04-23T18:48:37.152Z,2.60
2024-04-23T18:51:04.563Z,2.17
2024-04-23T18:53:31.130Z,2.55
2024-04-23T18:55:57.705Z,2.05
2024-04-23T18:58:24.297Z,2.08
2024-04-23T19:00:50.862Z,2.10
2024-04-23T19:03:17.485Z,1.60
2024-04-23T19:05:44.034Z,1.63
2024-04-23T19:08:10.751Z,1.15
2024-04-23T19:10:39.757Z,1.85
2024-04-23T19:13:06.934Z,1.92
2024-04-23T19:15:33.492Z,1.70
2024-04-23T19:18:01.222Z,2.80
2024-04-23T19:20:27.852Z,1.85
2024-04-23T19:22:54.636Z,2.35
2024-04-23T19:25:22.524Z,1.85
2024-04-23T19:27:51.035Z,1.77
2024-04-23T19:30:17.647Z,1.90
2024-04-23T19:32:44.695Z,2.42
2024-04-23T19:35:11.419Z,2.45
2024-04-23T19:37:37.958Z,2.50
2024-04-23T19:40:05.205Z,2.13
2024-04-23T19:42:31.725Z,2.47
2024-04-23T19:44:58.269Z,1.90
2024-04-23T19:47:25.241Z,2.15
2024-04-23T19:49:51.976Z,2.38
2024-04-23T19:52:18.526Z,2.28
2024-04-23T19:54:45.044Z,2.65
2024-04-23T19:57:11.547Z,2.65
2024-04-23T19:59:39.299Z,1.63
2024-04-23T20:02:05.960Z,2.05
2024-04-23T20:04:32.547Z,2.22
2024-04-23T20:06:59.072Z,1.70
2024-04-23T20:09:27.261Z,2.72
2024-04-23T20:11:53.978Z,1.45
2024-04-23T20:14:20.612Z,1.85
2024-04-23T20:16:47.311Z,2.60
2024-04-23T20:19:13.857Z,2.53
2024-04-23T20:21:40.345Z,2.15
2024-04-23T20:24:07.928Z,2.45
2024-04-23T20:26:34.481Z,2.50
2024-04-23T20:29:01.299Z,1.90
2024-04-23T20:31:30.192Z,2.08
2024-04-23T20:33:56.908Z,1.50
2024-04-23T20:36:23.582Z,1.73
2024-04-23T20:38:50.185Z,2.20
2024-04-23T20:41:17.302Z,1.83
2024-04-23T20:43:44.021Z,2.10
2024-04-23T20:46:11.064Z,2.03
2024-04-23T20:48:38.148Z,1.98
2024-04-23T20:51:04.897Z,3.08
2024-04-23T20:53:31.538Z,2.95
2024-04-23T20:56:02.457Z,1.90
2024-04-23T20:58:29.071Z,2.60
2024-04-23T21:00:55.605Z,2.40
2024-04-23T21:03:22.137Z,1.95
2024-04-23T21:05:48.718Z,1.83
2024-04-23T21:08:15.290Z,2.50
2024-04-23T21:10:41.850Z,2.25
2024-04-23T21:13:08.535Z,2.50
2024-04-23T21:15:35.327Z,1.60
2024-04-23T21:18:02.176Z,1.40
2024-04-23T21:20:28.902Z,1.23
2024-04-23T21:22:55.505Z,1.55
2024-04-23T21:25:22.128Z,1.85
2024-04-23T21:27:48.738Z,1.05
2024-04-23T21:30:15.349Z,1.38
2024-04-23T21:32:42.023Z,1.40
2024-04-23T21:35:08.709Z,1.58
2024-04-23T21:37:35.695Z,1.52
2024-04-23T21:40:02.268Z,1.33
2024-04-23T21:42:35.664Z,1.00
2024-04-23T21:45:07.963Z,1.10
2024-04-23T21:47:35.861Z,0.68
2024-04-23T21:50:03.010Z,0.98
2024-04-23T21:52:39.295Z,1.42
2024-04-23T21:55:09.038Z,1.10
2024-04-23T21:57:35.843Z,1.42
2024-04-23T22:00:02.579Z,1.45
2024-04-23T22:02:35.090Z,0.85
2024-04-23T22:05:01.870Z,1.23
2024-04-23T22:07:28.393Z,1.08
2024-04-23T22:09:54.962Z,1.55
2024-04-23T22:12:21.505Z,1.30
2024-04-23T22:14:48.044Z,1.13
2024-04-23T22:17:14.803Z,1.20
2024-04-23T22:19:41.388Z,1.08
2024-04-23T22:22:08.004Z,0.88
2024-04-23T22:24:35.100Z,1.15
2024-04-23T22:27:01.619Z,0.70
2024-04-23T22:29:28.609Z,1.58
2024-04-23T22:31:55.325Z,1.00
2024-04-23T22:34:21.868Z,1.42
2024-04-23T22:36:48.422Z,0.98
2024-04-23T22:39:14.913Z,1.88
2024-04-23T22:41:41.467Z,1.48
2024-04-23T22:44:07.986Z,1.15
2024-04-23T22:46:34.580Z,1.52
2024-04-23T22:49:03.478Z,1.40
2024-04-23T22:51:30.172Z,1.33
2024-04-23T22:53:56.703Z,1.88
2024-04-23T22:56:23.355Z,1.35
2024-04-23T22:58:50.011Z,1.60
2024-04-23T23:01:16.593Z,1.30
2024-04-23T23:03:43.139Z,1.00
2024-04-23T23:06:09.669Z,1.60
2024-04-23T23:08:36.210Z,1.60
2024-04-23T23:11:03.012Z,1.55
2024-04-23T23:13:29.821Z,1.27
2024-04-23T23:15:56.434Z,1.50
2024-04-23T23:18:23.118Z,1.05
2024-04-23T23:20:49.644Z,1.67
2024-04-23T23:23:16.190Z,1.38
2024-04-23T23:25:43.889Z,1.13
2024-04-23T23:28:10.689Z,1.40
2024-04-23T23:30:37.298Z,0.98
2024-04-23T23:33:04.089Z,1.08
2024-04-23T23:35:30.684Z,1.20
2024-04-23T23:37:57.271Z,1.02
2024-04-23T23:40:23.813Z,1.42
2024-04-23T23:42:50.494Z,1.40
2024-04-23T23:45:17.102Z,1.23
2024-04-23T23:47:43.818Z,1.77
2024-04-23T23:50:10.620Z,0.70
2024-04-23T23:52:39.909Z,1.13
2024-04-23T23:55:07.837Z,1.98
2024-04-23T23:57:34.369Z,1.48
